Terminal Aerodrome Forecast
Issued by NWS Norman, OK

Home | Current Version | Previous Version | Text Only | Print | Product List | Glossary On
Versions: 1 2 3 4 5 6 7 8 9 10 11 12 13 14
000
FTUS44 KOUN 250520
TAFSPS
TAF
KSPS 250520Z 2506/2606 15005KT P6SM SCT250
     FM251400 16014G20KT P6SM SKC
     FM251900 17018G27KT P6SM SCT250
     FM260100 15014KT P6SM SCT250=

USA.gov is the U.S. government's official web portal to all federal, state and local government web resources and services.